createdAt,value
2018-07-21T00:00:50.925Z,0
2018-07-21T00:02:11.427Z,0
2018-07-21T00:03:12.531Z,0
2018-07-21T00:04:12.483Z,0
2018-07-21T00:05:12.710Z,0
2018-07-21T00:06:12.948Z,0
2018-07-21T00:07:12.086Z,0
2018-07-21T00:08:11.878Z,0
2018-07-21T00:10:13.720Z,0
2018-07-21T00:11:35.219Z,0
2018-07-21T00:12:35.300Z,0
2018-07-21T00:13:35.092Z,0
2018-07-21T00:14:38.697Z,0
2018-07-21T00:15:35.699Z,0
2018-07-21T00:17:06.483Z,0
2018-07-21T00:18:05.245Z,0
2018-07-21T00:19:05.104Z,0
2018-07-21T00:20:05.752Z,0
2018-07-21T00:21:05.464Z,0
2018-07-21T00:22:05.258Z,0
2018-07-21T00:23:04.986Z,0
2018-07-21T00:24:26.097Z,0
2018-07-21T00:25:26.877Z,0
2018-07-21T00:26:26.793Z,0
2018-07-21T00:27:26.530Z,0
2018-07-21T00:28:26.174Z,0
2018-07-21T00:29:26.812Z,0
2018-07-21T00:30:26.638Z,0
2018-07-21T00:31:26.306Z,0
2018-07-21T00:32:27.005Z,0
2018-07-21T00:33:27.010Z,0
2018-07-21T00:34:27.889Z,0
2018-07-21T00:35:27.059Z,0
2018-07-21T00:36:26.822Z,0
2018-07-21T00:37:47.454Z,0
2018-07-21T00:38:48.271Z,0
2018-07-21T00:39:48.014Z,0
2018-07-21T00:40:47.620Z,0
2018-07-21T00:41:48.680Z,0
2018-07-21T00:42:47.815Z,0
2018-07-21T00:43:48.401Z,0
2018-07-21T00:44:48.565Z,0
2018-07-21T00:45:48.533Z,0
2018-07-21T00:46:48.601Z,0
2018-07-21T00:47:48.799Z,0
2018-07-21T00:48:47.879Z,0
2018-07-21T00:49:48.012Z,0
2018-07-21T00:50:48.255Z,0
2018-07-21T00:51:47.781Z,0
2018-07-21T00:52:48.756Z,0
2018-07-21T00:53:47.416Z,0
2018-07-21T00:54:48.217Z,0
2018-07-21T00:56:29.800Z,0
2018-07-21T00:58:13.112Z,0
2018-07-21T00:59:55.582Z,0
2018-07-21T01:00:54.789Z,0
2018-07-21T01:01:55.207Z,0
2018-07-21T01:02:54.904Z,0
2018-07-21T01:04:15.262Z,0
2018-07-21T01:05:16.148Z,0
2018-07-21T01:06:16.041Z,0
2018-07-21T01:07:15.962Z,0
2018-07-21T01:08:15.637Z,0
2018-07-21T01:09:15.475Z,0
2018-07-21T01:10:36.308Z,0
2018-07-21T01:11:37.725Z,0
2018-07-21T01:12:37.192Z,0
2018-07-21T01:13:37.459Z,0
2018-07-21T01:14:37.592Z,0
2018-07-21T01:15:37.228Z,0
2018-07-21T01:16:37.309Z,0
2018-07-21T01:17:37.350Z,0
2018-07-21T01:18:37.469Z,0
2018-07-21T01:19:37.146Z,0
2018-07-21T01:20:37.152Z,0
2018-07-21T01:21:57.880Z,0
2018-07-21T01:22:57.885Z,0
2018-07-21T01:23:57.568Z,0
2018-07-21T01:24:58.584Z,0
2018-07-21T01:25:58.365Z,0
2018-07-21T01:26:58.368Z,0
2018-07-21T01:28:18.716Z,0
2018-07-21T01:29:19.771Z,0
2018-07-21T01:30:19.847Z,0
2018-07-21T01:31:19.047Z,0
2018-07-21T01:32:40.024Z,0
2018-07-21T01:33:39.559Z,0
2018-07-21T01:34:40.643Z,0
2018-07-21T01:35:40.294Z,0
2018-07-21T01:36:40.094Z,0
2018-07-21T01:37:39.886Z,0
2018-07-21T01:38:40.781Z,0
2018-07-21T01:39:40.904Z,0
2018-07-21T01:40:40.823Z,0
2018-07-21T01:42:01.022Z,0
2018-07-21T01:43:02.064Z,0
2018-07-21T01:44:01.009Z,0
2018-07-21T01:45:01.628Z,0
2018-07-21T01:46:01.791Z,0
2018-07-21T01:47:01.489Z,0
2018-07-21T01:48:01.676Z,0
2018-07-21T01:49:01.726Z,0
2018-07-21T01:50:01.457Z,0
2018-07-21T01:51:01.734Z,0
2018-07-21T01:52:01.717Z,0
2018-07-21T01:53:01.933Z,0
2018-07-21T01:54:22.883Z,0
2018-07-21T01:55:22.745Z,0
2018-07-21T01:56:23.277Z,0
2018-07-21T01:57:23.366Z,0
2018-07-21T01:58:23.394Z,0
2018-07-21T01:59:23.331Z,0
2018-07-21T02:00:23.316Z,0
2018-07-21T02:01:22.955Z,0
2018-07-21T02:02:22.986Z,0
2018-07-21T02:03:23.232Z,0
2018-07-21T02:04:28.029Z,0
2018-07-21T02:05:23.185Z,0
2018-07-21T02:06:44.229Z,0
2018-07-21T02:07:44.052Z,0
2018-07-21T02:08:44.719Z,0
2018-07-21T02:09:44.787Z,0
2018-07-21T02:11:05.092Z,0
2018-07-21T02:12:06.049Z,0
2018-07-21T02:13:05.902Z,0
2018-07-21T02:14:26.758Z,0
2018-07-21T02:15:47.932Z,0
2018-07-21T02:16:48.135Z,0
2018-07-21T02:17:47.817Z,0
2018-07-21T02:18:47.557Z,0
2018-07-21T02:19:48.685Z,0
2018-07-21T02:20:52.016Z,0
2018-07-21T02:21:48.093Z,0
2018-07-21T02:22:48.230Z,0
2018-07-21T02:23:48.162Z,0
2018-07-21T02:24:48.151Z,0
2018-07-21T02:25:48.241Z,0
2018-07-21T02:26:47.915Z,0
2018-07-21T02:27:48.007Z,0
2018-07-21T02:28:47.860Z,0
2018-07-21T02:29:47.600Z,0
2018-07-21T02:30:48.741Z,0
2018-07-21T02:31:48.719Z,0
2018-07-21T02:32:47.677Z,0
2018-07-21T02:33:48.897Z,0
2018-07-21T02:34:47.740Z,0
2018-07-21T02:35:48.835Z,0
2018-07-21T02:36:47.760Z,0
2018-07-21T02:37:47.951Z,0
2018-07-21T02:38:48.208Z,0
2018-07-21T02:39:48.261Z,0
2018-07-21T02:40:48.520Z,0
2018-07-21T02:41:48.658Z,0
2018-07-21T02:42:48.363Z,0
2018-07-21T02:43:48.059Z,0
2018-07-21T02:45:29.261Z,0
2018-07-21T02:46:30.435Z,0
2018-07-21T02:47:30.305Z,0
2018-07-21T02:48:30.130Z,0
2018-07-21T02:49:30.369Z,0
2018-07-21T02:50:29.652Z,0
2018-07-21T02:51:29.841Z,0
2018-07-21T02:52:30.000Z,0
2018-07-21T02:53:30.288Z,0
2018-07-21T02:54:30.387Z,0
2018-07-21T02:55:30.298Z,0
2018-07-21T02:56:30.415Z,0
2018-07-21T02:57:30.524Z,0
2018-07-21T02:58:29.405Z,0
2018-07-21T02:59:30.444Z,0
2018-07-21T03:00:29.383Z,0
2018-07-21T03:01:30.242Z,0
2018-07-21T03:02:29.928Z,0
2018-07-21T03:03:29.813Z,0
2018-07-21T03:08:39.309Z,0
2018-07-21T03:09:38.860Z,0
2018-07-21T03:10:39.559Z,0
2018-07-21T03:11:39.373Z,0
2018-07-21T03:12:39.305Z,0
2018-07-21T03:13:39.425Z,0
2018-07-21T03:14:39.221Z,0
2018-07-21T03:15:38.961Z,0
2018-07-21T03:16:39.839Z,0
2018-07-21T03:17:39.916Z,0
2018-07-21T03:18:40.864Z,0
2018-07-21T03:19:39.972Z,0
2018-07-21T03:20:43.559Z,0
2018-07-21T03:21:59.792Z,0
2018-07-21T03:23:00.787Z,0
2018-07-21T03:24:00.939Z,0
2018-07-21T03:25:03.617Z,0
2018-07-21T03:26:00.394Z,0
2018-07-21T03:27:00.076Z,0
2018-07-21T03:28:00.579Z,0
2018-07-21T03:29:00.532Z,0
2018-07-21T03:30:00.505Z,0
2018-07-21T03:31:00.584Z,0
2018-07-21T03:32:00.945Z,0
2018-07-21T03:33:23.933Z,0
2018-07-21T03:34:22.111Z,0
2018-07-21T03:35:22.025Z,0
2018-07-21T03:36:21.888Z,1
2018-07-21T03:37:22.003Z,1
2018-07-21T03:38:21.640Z,1
2018-07-21T03:39:22.299Z,1
2018-07-21T03:40:22.390Z,1
2018-07-21T03:41:22.011Z,1
2018-07-21T03:42:23.780Z,1
2018-07-21T03:43:21.931Z,1
2018-07-21T03:44:22.238Z,1
2018-07-21T03:45:22.869Z,1
2018-07-21T03:46:22.617Z,1
2018-07-21T03:47:21.967Z,1
2018-07-21T03:48:21.799Z,1
2018-07-21T03:49:22.441Z,1
2018-07-21T03:50:21.457Z,1
2018-07-21T03:51:21.693Z,1
2018-07-21T03:52:22.530Z,1
2018-07-21T03:53:42.349Z,2
2018-07-21T03:54:43.802Z,2
2018-07-21T03:55:43.779Z,2
2018-07-21T03:56:43.042Z,2
2018-07-21T03:57:42.784Z,2
2018-07-21T03:58:42.396Z,2
2018-07-21T03:59:42.512Z,2
2018-07-21T04:00:44.297Z,2
2018-07-21T04:01:43.139Z,2
2018-07-21T04:02:42.958Z,2
2018-07-21T04:04:05.106Z,2
2018-07-21T04:05:06.196Z,2
2018-07-21T04:06:06.071Z,3
2018-07-21T04:07:03.624Z,3
2018-07-21T04:08:04.386Z,3
2018-07-21T04:09:04.151Z,3
2018-07-21T04:10:04.436Z,3
2018-07-21T04:11:04.189Z,3
2018-07-21T04:12:24.725Z,3
2018-07-21T04:13:24.783Z,3
2018-07-21T04:14:24.579Z,3
2018-07-21T04:15:24.779Z,3
2018-07-21T04:16:24.727Z,3
2018-07-21T04:17:45.720Z,4
2018-07-21T04:18:45.608Z,4
2018-07-21T04:19:46.150Z,4
2018-07-21T04:20:45.947Z,4
2018-07-21T04:21:45.882Z,5
2018-07-21T04:22:45.618Z,5
2018-07-21T04:23:46.264Z,5
2018-07-21T04:25:27.327Z,6
2018-07-21T04:26:27.039Z,6
2018-07-21T04:27:28.929Z,6
2018-07-21T04:28:27.958Z,7
2018-07-21T04:29:27.449Z,7
2018-07-21T04:30:27.046Z,7
2018-07-21T04:31:28.049Z,8
2018-07-21T04:32:27.831Z,8
2018-07-21T04:33:48.227Z,9
2018-07-21T04:34:48.826Z,9
2018-07-21T04:35:49.039Z,10
2018-07-21T04:36:48.789Z,10
2018-07-21T04:38:09.754Z,11
2018-07-21T04:39:09.814Z,11
2018-07-21T04:40:10.052Z,12
2018-07-21T04:41:30.528Z,13
2018-07-21T04:42:30.361Z,13
2018-07-21T04:43:31.376Z,13
2018-07-21T04:44:51.347Z,14
2018-07-21T04:45:52.065Z,14
2018-07-21T04:46:51.980Z,14
2018-07-21T04:47:52.245Z,14
2018-07-21T04:48:51.858Z,13
2018-07-21T04:50:12.578Z,13
2018-07-21T04:51:33.264Z,14
2018-07-21T04:52:34.276Z,14
2018-07-21T04:53:33.918Z,15
2018-07-21T04:54:33.489Z,15
2018-07-21T04:55:33.468Z,15
2018-07-21T04:56:54.936Z,15
2018-07-21T04:57:55.005Z,15
2018-07-21T04:58:55.104Z,15
2018-07-21T04:59:54.980Z,15
2018-07-21T05:00:54.737Z,15
2018-07-21T05:01:55.600Z,15
2018-07-21T05:02:55.704Z,15
2018-07-21T05:03:54.621Z,16
2018-07-21T05:04:55.334Z,17
2018-07-21T05:05:55.473Z,17
2018-07-21T05:06:55.670Z,18
2018-07-21T05:08:08.974Z,18
2018-07-21T05:08:55.358Z,18
2018-07-21T05:09:55.174Z,18
2018-07-21T05:11:15.471Z,18
2018-07-21T05:12:16.650Z,18
2018-07-21T05:13:15.556Z,19
2018-07-21T05:14:16.412Z,21
2018-07-21T05:14:57.688Z,21
2018-07-21T05:15:59.310Z,22
2018-07-21T05:16:58.298Z,23
2018-07-21T05:17:58.297Z,23
2018-07-21T05:18:58.543Z,23
2018-07-21T05:19:58.719Z,22
2018-07-21T05:20:57.962Z,22
2018-07-21T05:21:58.227Z,22
2018-07-21T05:22:58.436Z,22
2018-07-21T05:23:58.450Z,23
2018-07-21T05:24:58.412Z,24
2018-07-21T05:25:58.285Z,25
2018-07-21T05:26:58.242Z,25
2018-07-21T05:27:58.511Z,24
2018-07-21T05:28:58.210Z,23
2018-07-21T05:29:58.149Z,23
2018-07-21T05:30:58.237Z,22
2018-07-21T05:32:39.851Z,22
2018-07-21T05:33:41.064Z,22
2018-07-21T05:34:39.897Z,22
2018-07-21T05:35:41.051Z,21
2018-07-21T05:36:39.904Z,21
2018-07-21T05:38:23.058Z,21
2018-07-21T05:39:24.082Z,22
2018-07-21T05:40:45.220Z,22
2018-07-21T05:41:45.387Z,22
2018-07-21T05:42:46.361Z,22
2018-07-21T05:43:45.210Z,22
2018-07-21T05:44:45.422Z,22
2018-07-21T05:46:27.066Z,21
2018-07-21T05:47:26.773Z,20
2018-07-21T05:48:48.202Z,20
2018-07-21T05:49:49.142Z,20
2018-07-21T05:50:49.317Z,20
2018-07-21T05:51:49.030Z,21
2018-07-21T05:52:48.799Z,21
2018-07-21T05:53:48.459Z,23
2018-07-21T05:54:49.496Z,25
2018-07-21T05:55:51.684Z,26
2018-07-21T05:56:48.754Z,27
2018-07-21T05:57:48.706Z,28
2018-07-21T05:58:48.592Z,28
2018-07-21T06:00:29.917Z,28
2018-07-21T06:01:30.880Z,28
2018-07-21T06:02:52.025Z,29
2018-07-21T06:03:52.053Z,30
2018-07-21T06:04:52.373Z,31
2018-07-21T06:05:52.521Z,33
2018-07-21T06:07:12.895Z,35
2018-07-21T06:08:35.061Z,38
2018-07-21T06:09:56.089Z,41
2018-07-21T06:10:56.081Z,43
2018-07-21T06:11:56.809Z,46
2018-07-21T06:12:57.642Z,49
2018-07-21T06:13:56.611Z,52
2018-07-21T06:14:56.904Z,55
2018-07-21T06:15:55.834Z,57
2018-07-21T06:16:58.093Z,58
2018-07-21T06:18:16.763Z,59
2018-07-21T06:19:16.624Z,58
2018-07-21T06:20:28.433Z,58
2018-07-21T06:21:17.303Z,58
2018-07-21T06:22:20.402Z,59
2018-07-21T06:23:18.411Z,62
2018-07-21T06:24:19.410Z,64
2018-07-21T06:25:40.105Z,66
2018-07-21T06:26:39.110Z,68
2018-07-21T06:28:43.329Z,68
2018-07-21T06:29:43.270Z,68
2018-07-21T06:30:43.187Z,70
2018-07-21T06:31:43.520Z,69
2018-07-21T06:32:43.798Z,70
2018-07-21T06:33:43.955Z,70
2018-07-21T06:34:45.131Z,70
2018-07-21T06:35:44.201Z,69
2018-07-21T06:36:43.377Z,68
2018-07-21T06:37:43.210Z,67
2018-07-21T06:38:42.995Z,66
2018-07-21T06:39:45.756Z,66
2018-07-21T06:40:45.447Z,67
2018-07-21T06:41:43.139Z,68
2018-07-21T06:42:44.900Z,69
2018-07-21T06:43:44.055Z,71
2018-07-21T06:44:43.070Z,73
2018-07-21T06:45:44.173Z,75
2018-07-21T06:46:43.405Z,77
2018-07-21T06:47:43.469Z,75
2018-07-21T06:48:43.454Z,73
2018-07-21T06:49:45.936Z,73
2018-07-21T06:50:43.798Z,73
2018-07-21T06:51:43.533Z,75
2018-07-21T06:52:43.898Z,77
2018-07-21T06:53:44.491Z,80
2018-07-21T06:54:43.910Z,82
2018-07-21T06:55:44.277Z,84
2018-07-21T06:56:43.367Z,86
2018-07-21T06:58:04.500Z,87
2018-07-21T06:59:05.276Z,87
2018-07-21T07:00:05.561Z,87
2018-07-21T07:01:04.922Z,84
2018-07-21T07:02:04.733Z,80
2018-07-21T07:03:05.032Z,77
2018-07-21T07:04:05.026Z,76
2018-07-21T07:05:04.839Z,79
2018-07-21T07:06:05.138Z,83
2018-07-21T07:07:26.547Z,88
2018-07-21T07:08:26.699Z,94
2018-07-21T07:09:26.629Z,101
2018-07-21T07:10:26.832Z,108
2018-07-21T07:11:48.360Z,117
2018-07-21T07:12:48.890Z,125
2018-07-21T07:13:48.077Z,132
2018-07-21T07:14:48.474Z,139
2018-07-21T07:15:48.712Z,151
2018-07-21T07:16:47.783Z,160
2018-07-21T07:17:47.668Z,179
2018-07-21T07:18:48.839Z,177
2018-07-21T07:19:47.828Z,168
2018-07-21T07:20:48.059Z,183
2018-07-21T07:21:48.429Z,139
2018-07-21T07:23:09.428Z,125
2018-07-21T07:24:10.676Z,149
2018-07-21T07:25:09.648Z,166
2018-07-21T07:26:09.641Z,165
2018-07-21T07:27:31.162Z,171
2018-07-21T07:28:31.448Z,182
2018-07-21T07:29:52.475Z,181
2018-07-21T07:31:16.580Z,185
2018-07-21T07:32:16.007Z,192
2018-07-21T07:33:15.912Z,198
2018-07-21T07:34:15.860Z,202
2018-07-21T07:35:15.880Z,198
2018-07-21T07:36:15.742Z,201
2018-07-21T07:37:16.731Z,209
2018-07-21T07:38:15.990Z,307
2018-07-21T07:39:15.872Z,259
2018-07-21T07:40:15.732Z,211
2018-07-21T07:41:16.030Z,197
2018-07-21T07:42:16.415Z,219
2018-07-21T07:43:16.354Z,263
2018-07-21T07:44:16.366Z,269
2018-07-21T07:45:16.182Z,286
2018-07-21T07:46:16.681Z,292
2018-07-21T07:47:16.088Z,274
2018-07-21T07:48:16.574Z,258
2018-07-21T07:49:16.936Z,234
2018-07-21T07:50:15.804Z,220
2018-07-21T07:51:16.694Z,213
2018-07-21T07:52:15.946Z,198
2018-07-21T07:53:15.822Z,179
2018-07-21T07:54:16.599Z,164
2018-07-21T07:55:15.634Z,157
2018-07-21T07:56:15.687Z,150
2018-07-21T07:57:16.969Z,143
2018-07-21T07:58:16.796Z,135
2018-07-21T07:59:16.115Z,126
2018-07-21T08:00:16.591Z,123
2018-07-21T08:01:15.995Z,126
2018-07-21T08:02:16.210Z,131
2018-07-21T08:03:17.058Z,137
2018-07-21T08:04:16.379Z,141
2018-07-21T08:05:16.581Z,147
2018-07-21T08:06:15.696Z,163
2018-07-21T08:07:37.351Z,196
2018-07-21T08:08:38.352Z,220
2018-07-21T08:09:38.626Z,266
2018-07-21T08:10:37.858Z,257
2018-07-21T08:11:37.695Z,257
2018-07-21T08:12:37.625Z,216
2018-07-21T08:13:37.518Z,267
2018-07-21T08:15:19.289Z,223
2018-07-21T08:16:19.486Z,197
2018-07-21T08:17:40.486Z,213
2018-07-21T08:18:41.774Z,303
2018-07-21T08:19:40.906Z,267
2018-07-21T08:20:41.005Z,270
2018-07-21T08:21:41.418Z,287
2018-07-21T08:23:23.575Z,296
2018-07-21T08:24:23.816Z,257
2018-07-21T08:25:24.105Z,435
2018-07-21T08:26:25.057Z,339
2018-07-21T08:27:24.227Z,358
2018-07-21T08:28:23.687Z,374
2018-07-21T08:29:23.517Z,390
2018-07-21T08:30:23.867Z,316
2018-07-21T08:31:24.054Z,264
2018-07-21T08:32:45.403Z,233
2018-07-21T08:33:45.664Z,224
2018-07-21T08:34:45.501Z,228
2018-07-21T08:35:45.747Z,271
2018-07-21T08:36:45.828Z,380
2018-07-21T08:37:45.699Z,388
2018-07-21T08:38:45.432Z,325
2018-07-21T08:39:45.811Z,413
2018-07-21T08:40:46.063Z,420
2018-07-21T08:41:46.361Z,345
2018-07-21T08:43:06.828Z,373
2018-07-21T08:44:07.068Z,296
2018-07-21T08:45:07.340Z,235
2018-07-21T08:46:27.438Z,211
2018-07-21T08:47:28.746Z,210
2018-07-21T08:48:28.600Z,232
2018-07-21T08:49:28.828Z,268
2018-07-21T08:50:27.609Z,302
2018-07-21T08:51:27.981Z,313
2018-07-21T08:52:27.916Z,411
2018-07-21T08:53:28.034Z,536
2018-07-21T08:54:28.250Z,536
2018-07-21T08:55:28.547Z,499
2018-07-21T08:56:27.828Z,521
2018-07-21T08:57:27.593Z,464
2018-07-21T08:58:27.416Z,262
2018-07-21T08:59:28.788Z,242
2018-07-21T09:00:27.754Z,270
2018-07-21T09:01:28.853Z,332
2018-07-21T09:02:27.905Z,357
2018-07-21T09:03:28.240Z,390
2018-07-21T09:04:50.571Z,468
2018-07-21T09:05:50.904Z,498
2018-07-21T09:06:50.339Z,484
2018-07-21T09:07:51.081Z,348
2018-07-21T09:08:51.440Z,289
2018-07-21T09:10:11.036Z,370
2018-07-21T09:11:11.373Z,417
2018-07-21T09:12:11.311Z,481
2018-07-21T09:13:11.511Z,461
2018-07-21T09:14:11.440Z,454
2018-07-21T09:15:14.194Z,346
2018-07-21T09:16:31.834Z,263
2018-07-21T09:17:32.802Z,247
2018-07-21T09:18:33.906Z,270
2018-07-21T09:19:34.087Z,252
2018-07-21T09:20:32.907Z,245
2018-07-21T09:21:53.925Z,251
2018-07-21T09:22:55.135Z,284
2018-07-21T09:23:54.351Z,308
2018-07-21T09:24:54.709Z,264
2018-07-21T09:25:54.466Z,253
2018-07-21T09:26:54.338Z,256
2018-07-21T09:28:37.547Z,284
2018-07-21T09:29:37.415Z,323
2018-07-21T09:30:37.217Z,324
2018-07-21T09:31:38.588Z,363
2018-07-21T09:32:38.086Z,402
2018-07-21T09:33:39.022Z,414
2018-07-21T09:34:38.031Z,427
2018-07-21T09:35:38.072Z,426
2018-07-21T09:36:38.285Z,414
2018-07-21T09:37:57.850Z,436
2018-07-21T09:38:58.729Z,416
2018-07-21T09:39:58.743Z,416
2018-07-21T09:40:59.024Z,432
2018-07-21T09:41:57.869Z,436
2018-07-21T09:42:59.120Z,411
2018-07-21T09:43:58.163Z,383
2018-07-21T09:44:58.268Z,398
2018-07-21T09:46:02.938Z,459
2018-07-21T09:46:59.178Z,420
2018-07-21T09:47:58.130Z,476
2018-07-21T09:48:58.180Z,446
2018-07-21T09:49:58.355Z,399
2018-07-21T09:51:30.916Z,415
2018-07-21T09:52:18.973Z,425
2018-07-21T09:53:16.460Z,323
2018-07-21T09:55:11.297Z,311
2018-07-21T09:57:15.804Z,328
2018-07-21T09:58:12.650Z,333
2018-07-21T09:59:04.674Z,355
2018-07-21T10:00:04.457Z,362
2018-07-21T10:00:59.449Z,380
2018-07-21T10:01:57.345Z,402
2018-07-21T10:02:56.990Z,383
2018-07-21T10:03:57.188Z,403
2018-07-21T10:04:56.147Z,409
2018-07-21T10:05:55.149Z,430
2018-07-21T10:06:56.418Z,456
2018-07-21T10:07:55.384Z,468
2018-07-21T10:08:55.214Z,490
2018-07-21T10:09:55.255Z,491
2018-07-21T10:10:55.523Z,475
2018-07-21T10:11:55.573Z,487
2018-07-21T10:13:16.824Z,494
2018-07-21T10:14:17.269Z,509
2018-07-21T10:15:38.811Z,475
2018-07-21T10:16:38.757Z,513
2018-07-21T10:17:59.964Z,589
2018-07-21T10:19:00.257Z,626
2018-07-21T10:20:01.354Z,568
2018-07-21T10:21:00.315Z,636
2018-07-21T10:22:00.935Z,702
2018-07-21T10:22:59.758Z,724
2018-07-21T10:24:00.164Z,755
2018-07-21T10:26:40.682Z,747
2018-07-21T10:27:41.648Z,770
2018-07-21T10:32:35.539Z,448
2018-07-21T10:33:36.982Z,534
2018-07-21T10:34:36.002Z,595
2018-07-21T10:35:35.740Z,433
2018-07-21T10:36:37.498Z,512
2018-07-21T10:37:36.125Z,369
2018-07-21T10:38:35.967Z,414
2018-07-21T10:39:59.309Z,433
2018-07-21T10:40:59.840Z,448
2018-07-21T10:41:59.550Z,394
2018-07-21T10:43:00.501Z,401
2018-07-21T10:44:00.514Z,380
2018-07-21T10:44:59.964Z,403
2018-07-21T10:46:00.814Z,431
2018-07-21T10:47:00.061Z,406
2018-07-21T10:48:23.667Z,456
2018-07-21T10:49:23.673Z,484
2018-07-21T10:50:23.964Z,423
2018-07-21T10:51:23.614Z,419
2018-07-21T10:52:23.359Z,354
2018-07-21T10:53:24.586Z,331
2018-07-21T10:54:23.834Z,324
2018-07-21T10:55:23.874Z,329
2018-07-21T10:57:11.161Z,346
2018-07-21T10:58:11.808Z,346
2018-07-21T10:59:11.505Z,402
2018-07-21T11:00:36.012Z,342
2018-07-21T11:01:57.764Z,347
2018-07-21T11:02:57.630Z,370
2018-07-21T11:03:58.947Z,366
2018-07-21T11:04:59.327Z,347
2018-07-21T11:06:26.390Z,347
2018-07-21T11:07:26.228Z,363
2018-07-21T11:08:25.727Z,388
2018-07-21T11:09:26.376Z,433
2018-07-21T11:10:27.395Z,434
2018-07-21T11:11:26.327Z,454
2018-07-21T11:12:27.672Z,436
2018-07-21T11:13:50.124Z,409
2018-07-21T11:14:50.779Z,404
2018-07-21T11:15:50.436Z,395
2018-07-21T11:16:50.636Z,395
2018-07-21T11:17:51.619Z,408
2018-07-21T11:18:50.871Z,486
2018-07-21T11:20:35.887Z,531
2018-07-21T11:21:35.666Z,581
2018-07-21T11:22:36.624Z,449
2018-07-21T11:23:36.638Z,439
2018-07-21T11:24:36.179Z,412
2018-07-21T11:25:36.159Z,357
2018-07-21T11:26:36.531Z,346
2018-07-21T11:27:36.754Z,375
2018-07-21T11:28:36.136Z,331
2018-07-21T11:29:35.903Z,363
2018-07-21T11:30:36.480Z,438
2018-07-21T11:31:36.235Z,454
2018-07-21T11:32:36.817Z,478
2018-07-21T11:33:35.692Z,497
2018-07-21T11:34:41.359Z,522
2018-07-21T11:35:38.055Z,452
2018-07-21T11:36:36.801Z,413
2018-07-21T11:37:37.391Z,428
2018-07-21T11:38:36.672Z,401
2018-07-21T11:39:36.759Z,358
2018-07-21T11:40:38.373Z,314
2018-07-21T11:41:42.597Z,316
2018-07-21T11:42:36.035Z,361
2018-07-21T11:43:35.965Z,403
2018-07-21T11:44:37.165Z,518
2018-07-21T11:46:02.393Z,532
2018-07-21T11:47:00.524Z,451
2018-07-21T11:48:00.522Z,407
2018-07-21T11:49:01.688Z,350
2018-07-21T11:50:03.154Z,322
2018-07-21T11:51:00.569Z,306
2018-07-21T11:52:00.052Z,296
2018-07-21T11:53:01.179Z,298
2018-07-21T11:54:01.079Z,326
2018-07-21T11:55:00.112Z,332
2018-07-21T11:56:00.125Z,345
2018-07-21T11:57:00.305Z,339
2018-07-21T11:58:00.962Z,331
2018-07-21T11:59:01.167Z,329
2018-07-21T12:00:44.752Z,370
2018-07-21T12:01:45.213Z,419
2018-07-21T12:03:28.886Z,464
2018-07-21T12:04:28.745Z,438
2018-07-21T12:05:28.620Z,432
2018-07-21T12:06:30.115Z,452
2018-07-21T12:07:29.566Z,452
2018-07-21T12:08:31.117Z,465
2018-07-21T12:09:30.643Z,502
2018-07-21T12:10:31.323Z,498
2018-07-21T13:31:14.779Z,755
2018-07-21T13:32:39.967Z,733
2018-07-21T13:33:39.415Z,732
2018-07-21T13:34:38.896Z,714
2018-07-21T13:35:39.333Z,693
2018-07-21T13:36:38.745Z,681
2018-07-21T13:37:39.021Z,688
2018-07-21T13:38:39.345Z,673
2018-07-21T13:39:39.564Z,655
2018-07-21T13:40:39.041Z,650
2018-07-21T13:41:39.607Z,649
2018-07-21T13:42:38.942Z,650
2018-07-21T13:43:40.223Z,643
2018-07-21T13:44:38.694Z,647
2018-07-21T13:45:39.216Z,638
2018-07-21T13:46:39.383Z,629
2018-07-21T13:47:38.862Z,621
2018-07-21T13:48:39.327Z,611
2018-07-21T13:50:04.109Z,605
2018-07-21T13:51:03.564Z,578
2018-07-21T13:52:03.037Z,557
2018-07-21T13:53:04.722Z,552
2018-07-21T13:54:03.253Z,552
2018-07-21T13:55:26.881Z,587
2018-07-21T13:56:27.969Z,564
2018-07-21T13:57:27.445Z,562
2018-07-21T13:58:27.580Z,502
2018-07-21T13:59:26.929Z,521
2018-07-21T14:00:50.464Z,476
2018-07-21T14:01:50.982Z,460
2018-07-21T14:02:49.376Z,372
2018-07-21T14:03:52.013Z,362
2018-07-21T14:05:13.487Z,273
2018-07-21T14:06:14.055Z,265
2018-07-21T14:07:14.579Z,296
2018-07-21T14:08:14.065Z,279
2018-07-21T14:09:14.453Z,342
2018-07-21T14:10:11.842Z,387
2018-07-21T14:11:14.211Z,419
2018-07-21T14:12:13.738Z,582
2018-07-21T14:13:14.464Z,587
2018-07-21T14:14:37.452Z,591
2018-07-21T14:15:38.017Z,501
2018-07-21T14:16:38.298Z,516
2018-07-21T14:17:37.740Z,490
2018-07-21T14:18:38.636Z,494
2018-07-21T14:19:38.064Z,522
2018-07-21T14:20:38.043Z,528
2018-07-21T14:21:37.566Z,527
2018-07-21T14:22:38.570Z,511
2018-07-21T14:24:01.415Z,518
2018-07-21T14:25:01.863Z,235
2018-07-21T14:26:02.491Z,244
2018-07-21T14:27:01.747Z,518
2018-07-21T14:28:04.237Z,519
2018-07-21T14:29:00.667Z,492
2018-07-21T14:30:01.707Z,459
2018-07-21T14:31:02.931Z,461
2018-07-21T14:32:02.534Z,476
2018-07-21T14:33:03.183Z,489
2018-07-21T14:34:01.704Z,490
2018-07-21T14:35:25.272Z,460
2018-07-21T14:36:50.628Z,435
2018-07-21T14:37:51.064Z,443
2018-07-21T14:38:50.619Z,460
2018-07-21T14:39:51.078Z,455
2018-07-21T14:40:50.442Z,452
2018-07-21T14:41:51.914Z,436
2018-07-21T14:42:50.392Z,428
2018-07-21T14:43:51.013Z,422
2018-07-21T14:44:50.397Z,434
2018-07-21T14:45:50.968Z,442
2018-07-21T14:46:50.235Z,435
2018-07-21T14:47:50.792Z,433
2018-07-21T14:48:51.055Z,437
2018-07-21T14:49:50.583Z,434
2018-07-21T14:50:51.041Z,428
2018-07-21T14:51:50.306Z,418
2018-07-21T14:52:50.630Z,410
2018-07-21T14:53:50.887Z,398
2018-07-21T14:54:50.468Z,368
2018-07-21T14:55:50.978Z,323
2018-07-21T14:56:50.909Z,314
2018-07-21T14:57:50.430Z,336
2018-07-21T14:58:51.000Z,363
2018-07-21T14:59:50.451Z,379
2018-07-21T15:01:14.270Z,396
2018-07-21T15:02:13.340Z,408
2018-07-21T15:03:13.557Z,400
2018-07-21T15:04:15.068Z,391
2018-07-21T15:05:14.548Z,382
2018-07-21T15:06:15.115Z,377
2018-07-21T15:07:14.674Z,386
2018-07-21T15:08:15.196Z,392
2018-07-21T15:09:37.770Z,388
2018-07-21T15:10:38.321Z,390
2018-07-21T15:11:38.779Z,379
2018-07-21T15:12:38.390Z,371
2018-07-21T15:13:37.996Z,370
2018-07-21T15:14:38.519Z,364
2018-07-21T15:15:37.969Z,307
2018-07-21T15:16:38.502Z,359
2018-07-21T15:17:10.307Z,358
2018-07-21T15:18:08.875Z,361
2018-07-21T15:19:32.718Z,353
2018-07-21T15:20:56.384Z,348
2018-07-21T15:21:57.806Z,357
2018-07-21T15:22:57.252Z,359
2018-07-21T15:24:19.965Z,359
2018-07-21T15:25:20.614Z,351
2018-07-21T15:26:20.014Z,339
2018-07-21T15:27:21.461Z,327
2018-07-21T15:28:19.996Z,323
2018-07-21T15:29:20.389Z,340
2018-07-21T15:30:20.759Z,346
2018-07-21T15:31:20.309Z,337
2018-07-21T15:32:20.395Z,306
2018-07-21T15:33:43.189Z,343
2018-07-21T15:34:43.751Z,339
2018-07-21T15:35:43.108Z,332
2018-07-21T15:36:44.690Z,325
2018-07-21T15:37:42.908Z,320
2018-07-21T15:38:43.270Z,237
2018-07-21T15:39:43.340Z,133
2018-07-21T15:41:06.880Z,118
2018-07-21T15:42:07.919Z,134
2018-07-21T15:43:30.684Z,143
2018-07-21T15:44:31.028Z,139
2018-07-21T15:45:31.240Z,178
2018-07-21T15:46:31.184Z,138
2018-07-21T15:47:31.187Z,121
2018-07-21T15:48:30.779Z,146
2018-07-21T15:49:31.987Z,126
2018-07-21T15:50:31.839Z,114
2018-07-21T15:51:31.812Z,133
2018-07-21T15:52:31.579Z,115
2018-07-21T15:53:32.089Z,105
2018-07-21T15:54:30.501Z,95
2018-07-21T15:55:29.264Z,90
2018-07-21T15:56:30.264Z,85
2018-07-21T15:57:31.112Z,79
2018-07-21T15:58:54.179Z,74
2018-07-21T15:59:54.782Z,73
2018-07-21T16:00:55.085Z,72
2018-07-21T16:01:54.547Z,72
2018-07-21T16:03:17.768Z,74
2018-07-21T16:04:18.970Z,75
2018-07-21T16:05:18.330Z,76
2018-07-21T16:06:18.501Z,78
2018-07-21T16:07:18.150Z,80
2018-07-21T16:08:18.663Z,85
2018-07-21T16:09:18.094Z,89
2018-07-21T16:10:18.430Z,97
2018-07-21T16:11:18.119Z,103
2018-07-21T16:12:17.979Z,117
2018-07-21T16:13:18.615Z,123
2018-07-21T16:14:18.379Z,122
2018-07-21T16:15:18.681Z,113
2018-07-21T16:16:18.266Z,114
2018-07-21T16:17:17.255Z,123
2018-07-21T16:18:17.257Z,137
2018-07-21T16:19:17.369Z,136
2018-07-21T16:20:17.155Z,143
2018-07-21T16:21:18.040Z,139
2018-07-21T16:22:18.095Z,137
2018-07-21T16:23:18.092Z,135
2018-07-21T16:24:18.272Z,137
2018-07-21T16:25:19.191Z,144